sensor_id;sensor_type;location;lat;lon;timestamp;temperature;humidity
21193;DHT22;10754;51.106;7.164;2023-02-28T00:01:12;6.10;1.00
21193;DHT22;10754;51.106;7.164;2023-02-28T00:03:38;6.10;1.00
21193;DHT22;10754;51.106;7.164;2023-02-28T00:06:08;6.10;1.00
21193;DHT22;10754;51.106;7.164;2023-02-28T00:08:35;6.10;1.00
21193;DHT22;10754;51.106;7.164;2023-02-28T00:11:02;6.10;1.00
21193;DHT22;10754;51.106;7.164;2023-02-28T00:13:28;6.10;1.00
21193;DHT22;10754;51.106;7.164;2023-02-28T00:16:04;6.10;1.00
21193;DHT22;10754;51.106;7.164;2023-02-28T00:18:30;6.10;1.00
21193;DHT22;10754;51.106;7.164;2023-02-28T00:20:56;6.00;1.00
21193;DHT22;10754;51.106;7.164;2023-02-28T00:23:22;6.00;1.00
21193;DHT22;10754;51.106;7.164;2023-02-28T00:25:47;6.00;1.00
21193;DHT22;10754;51.106;7.164;2023-02-28T00:28:13;6.00;1.00
21193;DHT22;10754;51.106;7.164;2023-02-28T00:30:39;6.00;1.00
21193;DHT22;10754;51.106;7.164;2023-02-28T00:33:04;6.00;1.00
21193;DHT22;10754;51.106;7.164;2023-02-28T00:35:30;6.00;1.00
21193;DHT22;10754;51.106;7.164;2023-02-28T00:37:55;6.00;1.00
21193;DHT22;10754;51.106;7.164;2023-02-28T00:40:20;6.00;1.00
21193;DHT22;10754;51.106;7.164;2023-02-28T00:42:46;6.00;1.00
21193;DHT22;10754;51.106;7.164;2023-02-28T00:45:12;6.00;1.00
21193;DHT22;10754;51.106;7.164;2023-02-28T00:47:37;6.00;1.00
21193;DHT22;10754;51.106;7.164;2023-02-28T00:50:03;5.90;1.00
21193;DHT22;10754;51.106;7.164;2023-02-28T00:52:29;5.90;1.00
21193;DHT22;10754;51.106;7.164;2023-02-28T00:54:55;5.90;1.00
21193;DHT22;10754;51.106;7.164;2023-02-28T00:57:21;5.90;1.00
21193;DHT22;10754;51.106;7.164;2023-02-28T00:59:46;5.90;1.00
21193;DHT22;10754;51.106;7.164;2023-02-28T01:02:12;5.90;1.00
21193;DHT22;10754;51.106;7.164;2023-02-28T01:04:38;6.00;1.00
21193;DHT22;10754;51.106;7.164;2023-02-28T01:07:03;6.00;1.00
21193;DHT22;10754;51.106;7.164;2023-02-28T01:09:30;6.00;1.00
21193;DHT22;10754;51.106;7.164;2023-02-28T01:11:55;5.90;1.00
21193;DHT22;10754;51.106;7.164;2023-02-28T01:14:21;5.90;1.00
21193;DHT22;10754;51.106;7.164;2023-02-28T01:16:46;5.80;1.00
21193;DHT22;10754;51.106;7.164;2023-02-28T01:19:12;5.80;1.00
21193;DHT22;10754;51.106;7.164;2023-02-28T01:21:38;5.80;1.00
21193;DHT22;10754;51.106;7.164;2023-02-28T01:24:04;5.80;1.00
21193;DHT22;10754;51.106;7.164;2023-02-28T01:26:31;5.80;1.00
21193;DHT22;10754;51.106;7.164;2023-02-28T01:28:56;5.80;1.00
21193;DHT22;10754;51.106;7.164;2023-02-28T01:31:22;5.70;1.00
21193;DHT22;10754;51.106;7.164;2023-02-28T01:33:48;5.80;1.00
21193;DHT22;10754;51.106;7.164;2023-02-28T01:38:41;5.70;1.00
21193;DHT22;10754;51.106;7.164;2023-02-28T01:41:07;5.70;1.00
21193;DHT22;10754;51.106;7.164;2023-02-28T01:43:54;5.80;1.00
21193;DHT22;10754;51.106;7.164;2023-02-28T01:46:20;5.80;1.00
21193;DHT22;10754;51.106;7.164;2023-02-28T01:49:02;5.80;1.00
21193;DHT22;10754;51.106;7.164;2023-02-28T01:51:41;5.80;1.00
21193;DHT22;10754;51.106;7.164;2023-02-28T01:54:16;5.80;1.00
21193;DHT22;10754;51.106;7.164;2023-02-28T01:56:47;5.80;1.00
21193;DHT22;10754;51.106;7.164;2023-02-28T01:59:53;5.80;1.00
21193;DHT22;10754;51.106;7.164;2023-02-28T02:02:12;5.80;1.00
21193;DHT22;10754;51.106;7.164;2023-02-28T02:04:41;5.80;1.00
21193;DHT22;10754;51.106;7.164;2023-02-28T02:07:10;5.80;1.00
21193;DHT22;10754;51.106;7.164;2023-02-28T02:09:36;5.80;1.00
21193;DHT22;10754;51.106;7.164;2023-02-28T02:12:16;5.80;1.00
21193;DHT22;10754;51.106;7.164;2023-02-28T02:17:38;5.80;1.00
21193;DHT22;10754;51.106;7.164;2023-02-28T02:27:54;5.80;1.00
21193;DHT22;10754;51.106;7.164;2023-02-28T02:30:53;5.80;1.00
21193;DHT22;10754;51.106;7.164;2023-02-28T02:36:05;5.70;1.00
21193;DHT22;10754;51.106;7.164;2023-02-28T02:41:36;5.70;1.00
21193;DHT22;10754;51.106;7.164;2023-02-28T02:44:15;5.60;1.00
21193;DHT22;10754;51.106;7.164;2023-02-28T02:46:44;5.60;1.00
21193;DHT22;10754;51.106;7.164;2023-02-28T02:49:21;5.50;1.00
21193;DHT22;10754;51.106;7.164;2023-02-28T02:51:48;5.50;1.00
21193;DHT22;10754;51.106;7.164;2023-02-28T02:54:19;5.50;1.00
21193;DHT22;10754;51.106;7.164;2023-02-28T02:56:47;5.50;1.00
21193;DHT22;10754;51.106;7.164;2023-02-28T02:59:16;5.50;1.00
21193;DHT22;10754;51.106;7.164;2023-02-28T03:01:50;5.40;1.00
21193;DHT22;10754;51.106;7.164;2023-02-28T03:04:19;5.40;1.00
21193;DHT22;10754;51.106;7.164;2023-02-28T03:06:45;5.40;1.00
21193;DHT22;10754;51.106;7.164;2023-02-28T03:09:11;5.40;1.00
21193;DHT22;10754;51.106;7.164;2023-02-28T03:11:37;5.40;1.00
21193;DHT22;10754;51.106;7.164;2023-02-28T03:14:22;5.40;1.00
21193;DHT22;10754;51.106;7.164;2023-02-28T03:30:57;5.40;1.00
21193;DHT22;10754;51.106;7.164;2023-02-28T03:33:32;5.40;1.00
21193;DHT22;10754;51.106;7.164;2023-02-28T03:36:02;5.30;1.00
21193;DHT22;10754;51.106;7.164;2023-02-28T03:38:39;5.20;1.00
21193;DHT22;10754;51.106;7.164;2023-02-28T03:41:17;5.20;1.00
21193;DHT22;10754;51.106;7.164;2023-02-28T03:43:56;5.20;1.00
21193;DHT22;10754;51.106;7.164;2023-02-28T03:46:25;5.20;1.00
21193;DHT22;10754;51.106;7.164;2023-02-28T03:48:57;5.10;1.00
21193;DHT22;10754;51.106;7.164;2023-02-28T03:51:26;5.10;1.00
21193;DHT22;10754;51.106;7.164;2023-02-28T03:54:10;5.20;1.00
21193;DHT22;10754;51.106;7.164;2023-02-28T03:56:41;5.20;1.00
21193;DHT22;10754;51.106;7.164;2023-02-28T03:59:42;5.10;1.00
21193;DHT22;10754;51.106;7.164;2023-02-28T04:02:09;5.20;1.00
21193;DHT22;10754;51.106;7.164;2023-02-28T04:04:35;5.00;1.00
21193;DHT22;10754;51.106;7.164;2023-02-28T04:07:03;5.00;1.00
21193;DHT22;10754;51.106;7.164;2023-02-28T04:09:29;5.00;1.00
21193;DHT22;10754;51.106;7.164;2023-02-28T04:11:55;5.00;1.00
21193;DHT22;10754;51.106;7.164;2023-02-28T04:14:23;5.00;1.00
21193;DHT22;10754;51.106;7.164;2023-02-28T04:16:49;5.00;1.00
21193;DHT22;10754;51.106;7.164;2023-02-28T04:19:16;5.00;1.00
21193;DHT22;10754;51.106;7.164;2023-02-28T04:21:44;5.00;1.00
21193;DHT22;10754;51.106;7.164;2023-02-28T04:24:12;4.90;1.00
21193;DHT22;10754;51.106;7.164;2023-02-28T04:26:43;4.90;1.00
21193;DHT22;10754;51.106;7.164;2023-02-28T04:29:10;4.90;1.00
21193;DHT22;10754;51.106;7.164;2023-02-28T04:31:36;4.90;1.00
21193;DHT22;10754;51.106;7.164;2023-02-28T04:34:02;4.90;1.00
21193;DHT22;10754;51.106;7.164;2023-02-28T04:36:28;4.90;1.00
21193;DHT22;10754;51.106;7.164;2023-02-28T04:38:54;4.90;1.00
21193;DHT22;10754;51.106;7.164;2023-02-28T04:41:20;4.90;1.00
21193;DHT22;10754;51.106;7.164;2023-02-28T04:43:45;4.90;1.00
21193;DHT22;10754;51.106;7.164;2023-02-28T04:46:11;4.90;1.00
21193;DHT22;10754;51.106;7.164;2023-02-28T04:48:37;4.90;1.00
21193;DHT22;10754;51.106;7.164;2023-02-28T04:51:07;4.90;1.00
21193;DHT22;10754;51.106;7.164;2023-02-28T04:53:33;4.90;1.00
21193;DHT22;10754;51.106;7.164;2023-02-28T04:56:00;4.90;1.00
21193;DHT22;10754;51.106;7.164;2023-02-28T04:58:26;4.80;1.00
21193;DHT22;10754;51.106;7.164;2023-02-28T05:00:52;4.80;1.00
21193;DHT22;10754;51.106;7.164;2023-02-28T05:03:18;4.80;1.00
21193;DHT22;10754;51.106;7.164;2023-02-28T05:05:46;4.80;1.00
21193;DHT22;10754;51.106;7.164;2023-02-28T05:08:11;4.90;1.00
21193;DHT22;10754;51.106;7.164;2023-02-28T05:10:37;4.90;1.00
21193;DHT22;10754;51.106;7.164;2023-02-28T05:13:02;4.90;1.00
21193;DHT22;10754;51.106;7.164;2023-02-28T05:15:28;4.90;1.00
21193;DHT22;10754;51.106;7.164;2023-02-28T05:17:53;4.80;1.00
21193;DHT22;10754;51.106;7.164;2023-02-28T05:20:19;4.80;1.00
21193;DHT22;10754;51.106;7.164;2023-02-28T05:22:46;4.80;1.00
21193;DHT22;10754;51.106;7.164;2023-02-28T05:25:19;4.80;1.00
21193;DHT22;10754;51.106;7.164;2023-02-28T05:27:45;4.80;1.00
21193;DHT22;10754;51.106;7.164;2023-02-28T05:30:11;4.80;1.00
21193;DHT22;10754;51.106;7.164;2023-02-28T05:32:38;4.80;1.00
21193;DHT22;10754;51.106;7.164;2023-02-28T05:35:04;4.80;1.00
21193;DHT22;10754;51.106;7.164;2023-02-28T05:37:30;4.80;1.00
21193;DHT22;10754;51.106;7.164;2023-02-28T05:39:55;4.70;1.00
21193;DHT22;10754;51.106;7.164;2023-02-28T05:42:21;4.70;1.00
21193;DHT22;10754;51.106;7.164;2023-02-28T05:44:47;4.80;1.00
21193;DHT22;10754;51.106;7.164;2023-02-28T05:47:12;4.80;1.00
21193;DHT22;10754;51.106;7.164;2023-02-28T05:49:41;4.80;1.00
21193;DHT22;10754;51.106;7.164;2023-02-28T05:52:06;4.70;1.00
21193;DHT22;10754;51.106;7.164;2023-02-28T05:54:32;4.70;1.00
21193;DHT22;10754;51.106;7.164;2023-02-28T05:56:57;4.80;1.00
21193;DHT22;10754;51.106;7.164;2023-02-28T05:59:23;4.80;1.00
21193;DHT22;10754;51.106;7.164;2023-02-28T06:01:48;4.80;1.00
21193;DHT22;10754;51.106;7.164;2023-02-28T06:04:16;4.80;1.00
21193;DHT22;10754;51.106;7.164;2023-02-28T06:06:43;4.80;1.00
21193;DHT22;10754;51.106;7.164;2023-02-28T06:09:10;4.80;1.00
21193;DHT22;10754;51.106;7.164;2023-02-28T06:11:35;4.80;1.00
21193;DHT22;10754;51.106;7.164;2023-02-28T06:14:02;4.90;1.00
21193;DHT22;10754;51.106;7.164;2023-02-28T06:16:29;4.90;1.00
21193;DHT22;10754;51.106;7.164;2023-02-28T06:18:57;4.80;1.00
21193;DHT22;10754;51.106;7.164;2023-02-28T06:21:23;4.80;1.00
21193;DHT22;10754;51.106;7.164;2023-02-28T06:23:49;4.90;1.00
21193;DHT22;10754;51.106;7.164;2023-02-28T06:26:15;4.90;1.00
21193;DHT22;10754;51.106;7.164;2023-02-28T06:28:41;4.90;1.00
21193;DHT22;10754;51.106;7.164;2023-02-28T06:31:11;4.90;1.00
21193;DHT22;10754;51.106;7.164;2023-02-28T06:33:37;4.90;1.00
21193;DHT22;10754;51.106;7.164;2023-02-28T06:36:04;4.80;1.00
21193;DHT22;10754;51.106;7.164;2023-02-28T06:38:31;4.80;1.00
21193;DHT22;10754;51.106;7.164;2023-02-28T06:40:57;4.90;1.00
21193;DHT22;10754;51.106;7.164;2023-02-28T06:43:24;4.80;1.00
21193;DHT22;10754;51.106;7.164;2023-02-28T06:45:50;4.70;1.00
21193;DHT22;10754;51.106;7.164;2023-02-28T06:48:19;4.80;1.00
21193;DHT22;10754;51.106;7.164;2023-02-28T06:50:44;4.80;1.00
21193;DHT22;10754;51.106;7.164;2023-02-28T06:53:10;4.80;1.00
21193;DHT22;10754;51.106;7.164;2023-02-28T06:55:38;4.80;1.00
21193;DHT22;10754;51.106;7.164;2023-02-28T06:58:04;4.90;1.00
21193;DHT22;10754;51.106;7.164;2023-02-28T07:00:42;4.90;1.00
21193;DHT22;10754;51.106;7.164;2023-02-28T07:03:09;4.80;1.00
21193;DHT22;10754;51.106;7.164;2023-02-28T07:05:35;4.80;1.00
21193;DHT22;10754;51.106;7.164;2023-02-28T07:08:02;4.80;1.00
21193;DHT22;10754;51.106;7.164;2023-02-28T07:10:28;4.80;1.00
21193;DHT22;10754;51.106;7.164;2023-02-28T07:12:54;4.90;1.00
21193;DHT22;10754;51.106;7.164;2023-02-28T07:15:19;4.90;1.00
21193;DHT22;10754;51.106;7.164;2023-02-28T07:17:45;4.90;1.00
21193;DHT22;10754;51.106;7.164;2023-02-28T07:20:11;4.90;1.00
21193;DHT22;10754;51.106;7.164;2023-02-28T07:22:36;4.80;1.00
21193;DHT22;10754;51.106;7.164;2023-02-28T07:25:02;4.80;1.00
21193;DHT22;10754;51.106;7.164;2023-02-28T07:27:27;4.90;1.00
21193;DHT22;10754;51.106;7.164;2023-02-28T07:29:53;4.90;1.00
21193;DHT22;10754;51.106;7.164;2023-02-28T07:32:20;5.00;1.00
21193;DHT22;10754;51.106;7.164;2023-02-28T07:34:46;5.00;1.00
21193;DHT22;10754;51.106;7.164;2023-02-28T07:37:11;5.00;1.00
21193;DHT22;10754;51.106;7.164;2023-02-28T07:39:37;5.10;1.00
21193;DHT22;10754;51.106;7.164;2023-02-28T07:42:06;5.10;1.00
21193;DHT22;10754;51.106;7.164;2023-02-28T07:44:32;5.00;1.00
21193;DHT22;10754;51.106;7.164;2023-02-28T07:46:57;5.00;1.00
21193;DHT22;10754;51.106;7.164;2023-02-28T07:49:23;5.00;1.00
21193;DHT22;10754;51.106;7.164;2023-02-28T07:51:48;5.00;1.00
21193;DHT22;10754;51.106;7.164;2023-02-28T07:54:14;5.10;1.00
21193;DHT22;10754;51.106;7.164;2023-02-28T07:56:39;5.10;1.00
21193;DHT22;10754;51.106;7.164;2023-02-28T07:59:05;5.10;1.00
21193;DHT22;10754;51.106;7.164;2023-02-28T08:01:30;5.20;1.00
21193;DHT22;10754;51.106;7.164;2023-02-28T08:03:56;5.20;1.00
21193;DHT22;10754;51.106;7.164;2023-02-28T08:06:24;5.30;1.00
21193;DHT22;10754;51.106;7.164;2023-02-28T08:08:50;5.30;1.00
21193;DHT22;10754;51.106;7.164;2023-02-28T08:11:16;5.30;1.00
21193;DHT22;10754;51.106;7.164;2023-02-28T08:13:43;5.30;1.00
21193;DHT22;10754;51.106;7.164;2023-02-28T08:16:10;5.30;1.00
21193;DHT22;10754;51.106;7.164;2023-02-28T08:18:36;5.40;1.00
21193;DHT22;10754;51.106;7.164;2023-02-28T08:21:09;5.40;1.00
21193;DHT22;10754;51.106;7.164;2023-02-28T08:23:35;5.50;1.00
21193;DHT22;10754;51.106;7.164;2023-02-28T08:26:01;5.60;1.00
21193;DHT22;10754;51.106;7.164;2023-02-28T08:28:27;5.70;1.00
21193;DHT22;10754;51.106;7.164;2023-02-28T08:30:53;6.00;1.00
21193;DHT22;10754;51.106;7.164;2023-02-28T08:33:19;5.90;1.00
21193;DHT22;10754;51.106;7.164;2023-02-28T08:35:44;5.80;1.00
21193;DHT22;10754;51.106;7.164;2023-02-28T08:38:10;5.80;1.00
21193;DHT22;10754;51.106;7.164;2023-02-28T08:40:35;5.90;1.00
21193;DHT22;10754;51.106;7.164;2023-02-28T08:43:00;6.10;1.00
21193;DHT22;10754;51.106;7.164;2023-02-28T08:45:26;6.20;99.90
21193;DHT22;10754;51.106;7.164;2023-02-28T08:47:53;6.20;99.90
21193;DHT22;10754;51.106;7.164;2023-02-28T08:50:19;6.00;1.00
21193;DHT22;10754;51.106;7.164;2023-02-28T08:52:44;6.30;1.00
21193;DHT22;10754;51.106;7.164;2023-02-28T08:55:10;6.20;1.40
21193;DHT22;10754;51.106;7.164;2023-02-28T08:57:36;6.20;99.90
21193;DHT22;10754;51.106;7.164;2023-02-28T09:00:02;6.10;1.00
21193;DHT22;10754;51.106;7.164;2023-02-28T09:02:30;6.40;1.00
21193;DHT22;10754;51.106;7.164;2023-02-28T09:04:56;6.60;99.90
21193;DHT22;10754;51.106;7.164;2023-02-28T09:07:23;6.60;99.90
21193;DHT22;10754;51.106;7.164;2023-02-28T09:09:49;6.50;99.90
21193;DHT22;10754;51.106;7.164;2023-02-28T09:12:22;6.40;1.00
21193;DHT22;10754;51.106;7.164;2023-02-28T09:14:48;6.20;99.90
21193;DHT22;10754;51.106;7.164;2023-02-28T09:17:13;6.60;99.90
21193;DHT22;10754;51.106;7.164;2023-02-28T09:19:39;6.70;99.90
21193;DHT22;10754;51.106;7.164;2023-02-28T09:22:04;6.70;99.90
21193;DHT22;10754;51.106;7.164;2023-02-28T09:24:30;6.80;99.90
21193;DHT22;10754;51.106;7.164;2023-02-28T09:26:57;6.90;99.90
21193;DHT22;10754;51.106;7.164;2023-02-28T09:29:22;6.90;99.90
21193;DHT22;10754;51.106;7.164;2023-02-28T09:31:48;6.90;99.90
21193;DHT22;10754;51.106;7.164;2023-02-28T09:34:13;7.00;99.90
21193;DHT22;10754;51.106;7.164;2023-02-28T09:36:39;6.90;99.90
21193;DHT22;10754;51.106;7.164;2023-02-28T09:39:05;7.10;99.90
21193;DHT22;10754;51.106;7.164;2023-02-28T09:41:38;7.70;99.90
21193;DHT22;10754;51.106;7.164;2023-02-28T09:44:05;7.50;99.90
21193;DHT22;10754;51.106;7.164;2023-02-28T09:46:39;7.60;99.90
21193;DHT22;10754;51.106;7.164;2023-02-28T09:49:10;7.60;99.90
21193;DHT22;10754;51.106;7.164;2023-02-28T09:52:02;7.60;99.90
21193;DHT22;10754;51.106;7.164;2023-02-28T09:54:30;7.70;99.90
21193;DHT22;10754;51.106;7.164;2023-02-28T09:57:07;7.80;99.90
21193;DHT22;10754;51.106;7.164;2023-02-28T10:05:16;8.20;99.90
21193;DHT22;10754;51.106;7.164;2023-02-28T10:10:35;8.50;99.90
21193;DHT22;10754;51.106;7.164;2023-02-28T10:13:05;8.80;99.90
21193;DHT22;10754;51.106;7.164;2023-02-28T10:15:32;9.10;99.90
21193;DHT22;10754;51.106;7.164;2023-02-28T10:18:06;9.10;99.90
21193;DHT22;10754;51.106;7.164;2023-02-28T10:20:38;9.10;99.90
21193;DHT22;10754;51.106;7.164;2023-02-28T10:23:25;9.30;99.90
21193;DHT22;10754;51.106;7.164;2023-02-28T10:26:10;9.40;99.90
21193;DHT22;10754;51.106;7.164;2023-02-28T10:28:37;9.60;99.90
21193;DHT22;10754;51.106;7.164;2023-02-28T10:31:03;9.50;99.90
21193;DHT22;10754;51.106;7.164;2023-02-28T10:33:33;9.60;99.90
21193;DHT22;10754;51.106;7.164;2023-02-28T10:36:03;9.70;99.90
21193;DHT22;10754;51.106;7.164;2023-02-28T10:38:34;9.90;99.90
21193;DHT22;10754;51.106;7.164;2023-02-28T10:41:05;10.10;99.90
21193;DHT22;10754;51.106;7.164;2023-02-28T10:43:31;10.10;99.90
21193;DHT22;10754;51.106;7.164;2023-02-28T10:46:03;10.40;99.90
21193;DHT22;10754;51.106;7.164;2023-02-28T10:51:00;10.10;99.90
21193;DHT22;10754;51.106;7.164;2023-02-28T10:53:50;10.10;99.90
21193;DHT22;10754;51.106;7.164;2023-02-28T10:56:17;10.60;99.90
21193;DHT22;10754;51.106;7.164;2023-02-28T11:03:51;11.40;99.90
21193;DHT22;10754;51.106;7.164;2023-02-28T11:06:31;11.80;99.90
21193;DHT22;10754;51.106;7.164;2023-02-28T11:09:06;12.30;99.90
21193;DHT22;10754;51.106;7.164;2023-02-28T11:11:44;12.70;99.90
21193;DHT22;10754;51.106;7.164;2023-02-28T11:14:23;13.00;99.90
21193;DHT22;10754;51.106;7.164;2023-02-28T11:16:50;13.50;99.90
21193;DHT22;10754;51.106;7.164;2023-02-28T11:19:24;14.10;99.90
21193;DHT22;10754;51.106;7.164;2023-02-28T11:22:01;14.70;99.90
21193;DHT22;10754;51.106;7.164;2023-02-28T11:24:36;15.50;99.90
21193;DHT22;10754;51.106;7.164;2023-02-28T11:27:05;16.00;99.90
21193;DHT22;10754;51.106;7.164;2023-02-28T11:29:32;16.60;99.90
21193;DHT22;10754;51.106;7.164;2023-02-28T11:32:20;17.20;99.90
21193;DHT22;10754;51.106;7.164;2023-02-28T11:34:58;17.60;99.90
21193;DHT22;10754;51.106;7.164;2023-02-28T11:37:26;17.80;99.90
21193;DHT22;10754;51.106;7.164;2023-02-28T11:39:52;18.40;99.90
21193;DHT22;10754;51.106;7.164;2023-02-28T11:42:53;18.60;99.90
21193;DHT22;10754;51.106;7.164;2023-02-28T11:51:23;20.20;99.90
21193;DHT22;10754;51.106;7.164;2023-02-28T11:56:33;21.00;99.90
21193;DHT22;10754;51.106;7.164;2023-02-28T12:04:30;22.20;99.90
21193;DHT22;10754;51.106;7.164;2023-02-28T12:12:37;23.30;99.90
21193;DHT22;10754;51.106;7.164;2023-02-28T12:17:42;23.90;99.90
21193;DHT22;10754;51.106;7.164;2023-02-28T12:20:33;24.80;99.90
21193;DHT22;10754;51.106;7.164;2023-02-28T12:23:21;25.40;99.90
21193;DHT22;10754;51.106;7.164;2023-02-28T12:28:25;24.50;99.90
21193;DHT22;10754;51.106;7.164;2023-02-28T12:31:22;25.00;99.90
21193;DHT22;10754;51.106;7.164;2023-02-28T12:33:53;25.90;99.90
21193;DHT22;10754;51.106;7.164;2023-02-28T12:36:20;26.30;99.90
21193;DHT22;10754;51.106;7.164;2023-02-28T12:39:10;26.60;99.90
21193;DHT22;10754;51.106;7.164;2023-02-28T12:41:41;26.80;99.90
21193;DHT22;10754;51.106;7.164;2023-02-28T12:44:17;26.70;77.50
21193;DHT22;10754;51.106;7.164;2023-02-28T12:46:47;27.00;99.00
21193;DHT22;10754;51.106;7.164;2023-02-28T12:49:39;27.10;71.30
21193;DHT22;10754;51.106;7.164;2023-02-28T12:52:06;26.80;50.80
21193;DHT22;10754;51.106;7.164;2023-02-28T12:54:53;26.80;47.70
21193;DHT22;10754;51.106;7.164;2023-02-28T12:57:42;26.60;53.70
21193;DHT22;10754;51.106;7.164;2023-02-28T13:00:10;26.40;50.80
21193;DHT22;10754;51.106;7.164;2023-02-28T13:03:20;26.10;29.30
21193;DHT22;10754;51.106;7.164;2023-02-28T13:09:08;25.60;42.80
21193;DHT22;10754;51.106;7.164;2023-02-28T13:11:45;25.20;28.00
21193;DHT22;10754;51.106;7.164;2023-02-28T13:14:36;24.60;30.90
21193;DHT22;10754;51.106;7.164;2023-02-28T13:19:45;22.20;99.90
21193;DHT22;10754;51.106;7.164;2023-02-28T13:28:01;21.00;99.90
21193;DHT22;10754;51.106;7.164;2023-02-28T13:33:30;20.10;99.90
21193;DHT22;10754;51.106;7.164;2023-02-28T13:38:45;19.70;99.90
21193;DHT22;10754;51.106;7.164;2023-02-28T13:44:09;18.60;99.90
21193;DHT22;10754;51.106;7.164;2023-02-28T13:57:20;17.10;99.90
21193;DHT22;10754;51.106;7.164;2023-02-28T14:05:18;16.20;99.90
21193;DHT22;10754;51.106;7.164;2023-02-28T14:07:53;16.10;99.90
21193;DHT22;10754;51.106;7.164;2023-02-28T14:15:28;15.70;99.90
21193;DHT22;10754;51.106;7.164;2023-02-28T14:17:57;15.70;99.90
21193;DHT22;10754;51.106;7.164;2023-02-28T14:20:29;15.30;99.90
21193;DHT22;10754;51.106;7.164;2023-02-28T14:23:01;15.40;99.90
21193;DHT22;10754;51.106;7.164;2023-02-28T14:26:05;15.00;99.90
21193;DHT22;10754;51.106;7.164;2023-02-28T14:28:59;14.70;99.90
21193;DHT22;10754;51.106;7.164;2023-02-28T14:31:38;14.30;99.90
21193;DHT22;10754;51.106;7.164;2023-02-28T14:36:52;14.10;99.90
21193;DHT22;10754;51.106;7.164;2023-02-28T14:39:24;13.80;99.90
21193;DHT22;10754;51.106;7.164;2023-02-28T14:41:51;13.80;99.90
21193;DHT22;10754;51.106;7.164;2023-02-28T14:44:27;14.00;99.90
21193;DHT22;10754;51.106;7.164;2023-02-28T14:47:01;13.70;99.90
21193;DHT22;10754;51.106;7.164;2023-02-28T14:49:34;13.40;99.90
21193;DHT22;10754;51.106;7.164;2023-02-28T14:52:17;13.20;99.90
21193;DHT22;10754;51.106;7.164;2023-02-28T14:54:43;13.10;99.90
21193;DHT22;10754;51.106;7.164;2023-02-28T14:57:30;12.90;99.90
21193;DHT22;10754;51.106;7.164;2023-02-28T15:00:12;12.90;99.90
21193;DHT22;10754;51.106;7.164;2023-02-28T15:02:39;12.80;99.90
21193;DHT22;10754;51.106;7.164;2023-02-28T15:07:43;12.70;99.90
21193;DHT22;10754;51.106;7.164;2023-02-28T15:10:25;12.60;99.90
21193;DHT22;10754;51.106;7.164;2023-02-28T15:12:58;12.80;99.90
21193;DHT22;10754;51.106;7.164;2023-02-28T15:15:35;12.50;99.90
21193;DHT22;10754;51.106;7.164;2023-02-28T15:18:20;12.40;99.90
21193;DHT22;10754;51.106;7.164;2023-02-28T15:20:46;12.40;99.90
21193;DHT22;10754;51.106;7.164;2023-02-28T15:23:12;12.10;99.90
21193;DHT22;10754;51.106;7.164;2023-02-28T15:25:40;12.10;99.90
21193;DHT22;10754;51.106;7.164;2023-02-28T15:28:14;11.90;99.90
21193;DHT22;10754;51.106;7.164;2023-02-28T15:30:51;11.80;99.90
21193;DHT22;10754;51.106;7.164;2023-02-28T15:35:42;11.70;99.90
21193;DHT22;10754;51.106;7.164;2023-02-28T15:38:24;11.70;99.90
21193;DHT22;10754;51.106;7.164;2023-02-28T15:40:57;11.80;99.90
21193;DHT22;10754;51.106;7.164;2023-02-28T15:43:34;11.80;99.90
21193;DHT22;10754;51.106;7.164;2023-02-28T15:48:32;11.60;99.90
21193;DHT22;10754;51.106;7.164;2023-02-28T15:51:08;11.50;99.90
21193;DHT22;10754;51.106;7.164;2023-02-28T15:53:45;11.40;99.90
21193;DHT22;10754;51.106;7.164;2023-02-28T15:59:15;11.20;99.90
21193;DHT22;10754;51.106;7.164;2023-02-28T16:01:42;11.20;99.90
21193;DHT22;10754;51.106;7.164;2023-02-28T16:04:14;11.10;99.90
21193;DHT22;10754;51.106;7.164;2023-02-28T16:07:02;11.00;99.90
21193;DHT22;10754;51.106;7.164;2023-02-28T16:09:28;11.00;99.90
21193;DHT22;10754;51.106;7.164;2023-02-28T16:11:59;11.00;99.90
21193;DHT22;10754;51.106;7.164;2023-02-28T16:14:27;10.90;99.90
21193;DHT22;10754;51.106;7.164;2023-02-28T16:16:57;10.90;99.90
21193;DHT22;10754;51.106;7.164;2023-02-28T16:19:27;11.00;99.90
21193;DHT22;10754;51.106;7.164;2023-02-28T16:21:52;10.70;99.90
21193;DHT22;10754;51.106;7.164;2023-02-28T16:24:18;10.70;99.90
21193;DHT22;10754;51.106;7.164;2023-02-28T16:26:46;10.70;99.90
21193;DHT22;10754;51.106;7.164;2023-02-28T16:29:24;10.50;99.90
21193;DHT22;10754;51.106;7.164;2023-02-28T16:31:49;10.50;99.90
21193;DHT22;10754;51.106;7.164;2023-02-28T16:34:15;10.40;99.90
21193;DHT22;10754;51.106;7.164;2023-02-28T16:36:40;10.50;99.90
21193;DHT22;10754;51.106;7.164;2023-02-28T16:39:06;10.40;99.90
21193;DHT22;10754;51.106;7.164;2023-02-28T16:41:34;10.40;99.90
21193;DHT22;10754;51.106;7.164;2023-02-28T16:43:59;10.40;99.90
21193;DHT22;10754;51.106;7.164;2023-02-28T16:46:34;10.30;99.90
21193;DHT22;10754;51.106;7.164;2023-02-28T16:49:00;10.30;99.90
21193;DHT22;10754;51.106;7.164;2023-02-28T16:51:26;10.30;99.90
21193;DHT22;10754;51.106;7.164;2023-02-28T16:53:51;10.20;99.90
21193;DHT22;10754;51.106;7.164;2023-02-28T16:56:20;10.20;99.90
21193;DHT22;10754;51.106;7.164;2023-02-28T16:58:46;10.20;99.90
21193;DHT22;10754;51.106;7.164;2023-02-28T17:01:12;10.10;99.90
21193;DHT22;10754;51.106;7.164;2023-02-28T17:03:38;10.10;99.90
21193;DHT22;10754;51.106;7.164;2023-02-28T17:06:06;10.10;99.90
21193;DHT22;10754;51.106;7.164;2023-02-28T17:08:37;10.00;99.90
21193;DHT22;10754;51.106;7.164;2023-02-28T17:11:03;10.10;99.90
21193;DHT22;10754;51.106;7.164;2023-02-28T17:13:29;10.00;99.90
21193;DHT22;10754;51.106;7.164;2023-02-28T17:15:55;9.90;99.90
21193;DHT22;10754;51.106;7.164;2023-02-28T17:18:20;9.90;99.90
21193;DHT22;10754;51.106;7.164;2023-02-28T17:20:46;9.90;99.90
21193;DHT22;10754;51.106;7.164;2023-02-28T17:23:12;9.80;99.90
21193;DHT22;10754;51.106;7.164;2023-02-28T17:25:37;9.80;99.90
21193;DHT22;10754;51.106;7.164;2023-02-28T17:28:03;9.70;99.90
21193;DHT22;10754;51.106;7.164;2023-02-28T17:30:29;9.70;99.90
21193;DHT22;10754;51.106;7.164;2023-02-28T17:32:55;9.70;99.90
21193;DHT22;10754;51.106;7.164;2023-02-28T17:35:21;9.70;99.90
21193;DHT22;10754;51.106;7.164;2023-02-28T17:37:47;9.60;99.90
21193;DHT22;10754;51.106;7.164;2023-02-28T17:40:15;9.60;99.90
21193;DHT22;10754;51.106;7.164;2023-02-28T17:42:40;9.60;99.90
21193;DHT22;10754;51.106;7.164;2023-02-28T17:45:06;9.50;99.90
21193;DHT22;10754;51.106;7.164;2023-02-28T17:47:32;9.50;99.90
21193;DHT22;10754;51.106;7.164;2023-02-28T17:49:57;9.50;99.90
21193;DHT22;10754;51.106;7.164;2023-02-28T17:52:23;9.40;99.90
21193;DHT22;10754;51.106;7.164;2023-02-28T17:54:48;9.40;99.90
21193;DHT22;10754;51.106;7.164;2023-02-28T17:57:15;9.40;99.90
21193;DHT22;10754;51.106;7.164;2023-02-28T17:59:40;9.30;99.90
21193;DHT22;10754;51.106;7.164;2023-02-28T18:02:08;9.30;99.90
21193;DHT22;10754;51.106;7.164;2023-02-28T18:04:34;9.30;99.90
21193;DHT22;10754;51.106;7.164;2023-02-28T18:06:59;9.20;99.90
21193;DHT22;10754;51.106;7.164;2023-02-28T18:09:26;9.20;99.90
21193;DHT22;10754;51.106;7.164;2023-02-28T18:11:53;9.20;99.90
21193;DHT22;10754;51.106;7.164;2023-02-28T18:14:21;9.20;99.90